createdAt,value
2023-01-06T00:04:38.135Z,8.98
2023-01-06T00:09:37.039Z,9.23
2023-01-06T00:14:35.886Z,7.57
2023-01-06T00:19:36.020Z,8.43
2023-01-06T00:24:35.006Z,8.75
2023-01-06T00:29:34.451Z,8.70
2023-01-06T00:34:33.276Z,8.20
2023-01-06T00:39:33.608Z,8.25
2023-01-06T00:44:32.524Z,7.13
2023-01-06T00:49:31.466Z,8.50
2023-01-06T00:54:30.266Z,8.55
2023-01-06T00:59:30.513Z,7.93
2023-01-06T01:04:29.565Z,7.22
2023-01-06T01:09:30.429Z,7.35
2023-01-06T01:14:31.014Z,7.75
2023-01-06T01:19:30.690Z,7.82
2023-01-06T01:24:29.593Z,8.13
2023-01-06T01:29:28.366Z,7.85
2023-01-06T01:34:28.750Z,6.97
2023-01-06T01:39:29.253Z,7.20
2023-01-06T01:45:01.427Z,7.75
2023-01-06T01:50:05.773Z,7.10
2023-01-06T01:55:05.796Z,7.22
2023-01-06T02:00:07.363Z,6.97
2023-01-06T02:05:15.373Z,8.15
2023-01-06T02:10:16.570Z,6.93
2023-01-06T02:15:20.512Z,8.57
2023-01-06T02:20:42.838Z,8.23
2023-01-06T02:26:09.889Z,7.30
2023-01-06T02:31:40.266Z,8.20
2023-01-06T02:36:47.360Z,8.32
2023-01-06T02:41:56.829Z,7.55
2023-01-06T02:47:14.104Z,7.93
2023-01-06T02:52:23.712Z,6.38
2023-01-06T02:57:36.086Z,8.13
2023-01-06T03:02:41.547Z,7.70
2023-01-06T03:07:41.224Z,8.05
2023-01-06T03:12:45.664Z,7.13
2023-01-06T03:17:46.611Z,7.88
2023-01-06T03:22:45.572Z,7.63
2023-01-06T03:27:44.382Z,7.40
2023-01-06T03:32:57.569Z,6.95
2023-01-06T03:38:06.156Z,7.15
2023-01-06T03:43:16.518Z,7.75
2023-01-06T03:48:27.686Z,7.22
2023-01-06T03:53:35.434Z,6.95
2023-01-06T03:58:38.275Z,5.97
2023-01-06T04:03:38.851Z,5.88
2023-01-06T04:08:38.290Z,6.47
2023-01-06T04:13:37.734Z,5.72
2023-01-06T04:18:36.758Z,5.55
2023-01-06T04:23:36.984Z,6.07
2023-01-06T04:28:38.607Z,5.45
2023-01-06T04:33:37.777Z,6.88
2023-01-06T04:38:40.835Z,6.25
2023-01-06T04:43:40.315Z,6.45
2023-01-06T04:48:39.167Z,6.80
2023-01-06T04:53:42.309Z,6.38
2023-01-06T04:58:41.676Z,5.57
2023-01-06T05:03:41.209Z,4.72
2023-01-06T05:08:42.573Z,4.65
2023-01-06T05:13:41.539Z,5.28
2023-01-06T05:18:40.323Z,5.40
2023-01-06T05:23:39.727Z,11.20
2023-01-06T05:28:39.895Z,12.82
2023-01-06T05:33:38.943Z,6.88
2023-01-06T05:38:37.796Z,5.03
2023-01-06T05:43:37.944Z,6.95
2023-01-06T05:48:38.911Z,6.50
2023-01-06T05:53:40.259Z,7.50
2023-01-06T05:58:41.125Z,8.23
2023-01-06T06:03:41.252Z,8.10
2023-01-06T06:08:40.359Z,8.07
2023-01-06T06:13:39.580Z,10.25
2023-01-06T06:18:43.064Z,8.70
2023-01-06T06:23:42.779Z,8.32
2023-01-06T06:28:42.915Z,9.85
2023-01-06T06:33:43.299Z,9.30
2023-01-06T06:38:42.196Z,8.00
2023-01-06T06:43:41.744Z,8.48
2023-01-06T06:48:42.139Z,8.75
2023-01-06T06:53:41.129Z,10.45
2023-01-06T06:58:40.530Z,8.00
2023-01-06T07:03:39.404Z,6.75
2023-01-06T07:08:39.607Z,7.82
2023-01-06T07:13:38.415Z,7.40
2023-01-06T07:18:37.420Z,7.93
2023-01-06T07:23:36.192Z,9.13
2023-01-06T07:28:36.312Z,8.10
2023-01-06T07:33:35.159Z,6.60
2023-01-06T07:38:34.047Z,6.95
2023-01-06T07:43:32.820Z,6.78
2023-01-06T07:48:32.965Z,4.97
2023-01-06T07:53:32.598Z,4.10
2023-01-06T07:58:32.661Z,5.22
2023-01-06T08:03:32.873Z,5.07
2023-01-06T08:08:31.589Z,4.53
2023-01-06T08:13:30.561Z,4.03
2023-01-06T08:18:30.119Z,4.47
2023-01-06T08:23:30.688Z,3.50
2023-01-06T08:28:29.479Z,3.63
2023-01-06T08:33:29.235Z,3.50
2023-01-06T08:38:30.962Z,5.07
2023-01-06T08:43:31.689Z,5.45
2023-01-06T08:48:31.000Z,5.00
2023-01-06T08:53:31.475Z,5.55
2023-01-06T08:58:30.225Z,3.65
2023-01-06T09:03:28.988Z,2.92
2023-01-06T09:08:27.773Z,4.13
2023-01-06T09:13:27.972Z,3.33
2023-01-06T09:18:26.782Z,4.45
2023-01-06T09:23:27.234Z,3.10
2023-01-06T09:28:27.539Z,2.90
2023-01-06T09:33:27.683Z,2.85
2023-01-06T09:38:28.245Z,2.75
2023-01-06T09:43:40.206Z,2.28
2023-01-06T09:48:43.791Z,3.78
2023-01-06T09:53:46.138Z,2.53
2023-01-06T09:58:53.970Z,2.92
2023-01-06T10:03:52.843Z,4.50
2023-01-06T10:08:59.261Z,2.60
2023-01-06T10:14:11.928Z,4.72
2023-01-06T10:19:23.494Z,2.40
2023-01-06T10:24:47.464Z,3.53
2023-01-06T10:29:50.122Z,3.20
2023-01-06T10:34:51.689Z,2.85
2023-01-06T10:39:57.455Z,7.28
2023-01-06T10:44:57.742Z,1.83
2023-01-06T10:49:56.574Z,3.45
2023-01-06T10:54:59.720Z,3.45
2023-01-06T11:00:15.437Z,3.80
2023-01-06T11:05:15.895Z,2.45
2023-01-06T11:10:27.023Z,2.80
2023-01-06T11:15:35.575Z,4.68
2023-01-06T11:20:35.890Z,2.95
2023-01-06T11:25:34.639Z,3.22
2023-01-06T11:30:40.716Z,4.15
2023-01-06T11:35:39.433Z,3.58
2023-01-06T11:40:39.138Z,2.05
2023-01-06T11:45:43.549Z,1.23
2023-01-06T11:50:42.899Z,1.65
2023-01-06T11:55:41.799Z,3.92
2023-01-06T12:00:47.285Z,2.30
2023-01-06T12:05:52.883Z,2.53
2023-01-06T12:10:57.713Z,3.72
2023-01-06T12:16:05.294Z,1.77
2023-01-06T12:21:08.979Z,1.90
2023-01-06T12:26:15.811Z,1.88
2023-01-06T12:31:21.646Z,2.53
2023-01-06T12:36:31.198Z,2.42
2023-01-06T12:41:36.507Z,1.67
2023-01-06T12:46:42.736Z,1.95
2023-01-06T12:51:45.679Z,1.92
2023-01-06T12:57:07.457Z,2.92
2023-01-06T13:02:20.797Z,2.70
2023-01-06T13:07:36.587Z,2.80
2023-01-06T13:12:53.296Z,2.55
2023-01-06T13:18:05.734Z,1.85
2023-01-06T13:23:20.530Z,1.67
2023-01-06T13:28:30.380Z,3.45
2023-01-06T13:34:05.071Z,3.70
2023-01-06T13:39:11.504Z,2.65
2023-01-06T13:44:16.705Z,7.15
2023-01-06T13:49:17.336Z,2.08
2023-01-06T13:54:53.566Z,2.05
2023-01-06T13:59:53.518Z,2.60
2023-01-06T14:04:53.798Z,2.65
2023-01-06T14:09:53.329Z,1.95
2023-01-06T14:15:02.154Z,6.20
2023-01-06T14:20:02.467Z,12.73
2023-01-06T14:25:04.405Z,39.42
2023-01-06T14:30:21.698Z,12.88
2023-01-06T14:35:28.628Z,14.10
2023-01-06T14:40:29.860Z,8.25
2023-01-06T14:45:31.207Z,19.38
2023-01-06T14:50:46.027Z,42.28
2023-01-06T14:55:48.901Z,18.65
2023-01-06T15:00:47.976Z,22.67
2023-01-06T15:05:48.228Z,18.95
2023-01-06T15:10:48.446Z,10.88
2023-01-06T15:15:52.819Z,8.48
2023-01-06T15:20:55.744Z,10.23
2023-01-06T15:25:56.339Z,10.43
2023-01-06T15:31:00.230Z,9.38
2023-01-06T15:36:02.081Z,13.15
2023-01-06T15:41:01.674Z,5.38
2023-01-06T15:46:06.346Z,5.63
2023-01-06T15:51:13.255Z,3.47
2023-01-06T15:56:21.907Z,4.72
2023-01-06T16:01:22.943Z,7.13
2023-01-06T16:06:29.096Z,7.20
2023-01-06T16:11:47.545Z,5.55
2023-01-06T16:16:46.603Z,4.15
2023-01-06T16:21:47.290Z,5.45
2023-01-06T16:26:54.715Z,6.45
2023-01-06T16:31:53.597Z,4.35
2023-01-06T16:36:56.729Z,4.00
2023-01-06T16:42:39.641Z,4.65
2023-01-06T16:47:38.695Z,7.40
2023-01-06T16:52:39.035Z,5.90
2023-01-06T16:57:38.267Z,4.32
2023-01-06T17:02:38.325Z,5.45
2023-01-06T17:07:38.965Z,4.13
2023-01-06T17:12:54.808Z,4.40
2023-01-06T17:17:53.608Z,5.80
2023-01-06T17:22:53.909Z,6.20
2023-01-06T17:27:52.869Z,5.10
2023-01-06T17:32:51.805Z,12.15
2023-01-06T17:37:50.711Z,5.68
2023-01-06T17:43:01.501Z,4.60
2023-01-06T17:48:00.419Z,4.68
2023-01-06T17:53:31.947Z,3.72
2023-01-06T17:58:34.259Z,4.22
2023-01-06T18:03:34.592Z,4.77
2023-01-06T18:08:34.191Z,4.97
2023-01-06T18:13:37.583Z,6.55
2023-01-06T18:18:41.291Z,4.97
2023-01-06T18:23:40.241Z,4.93
2023-01-06T18:28:40.710Z,5.00
2023-01-06T18:33:39.488Z,4.50
2023-01-06T18:38:38.450Z,4.43
2023-01-06T18:43:41.436Z,5.78
2023-01-06T18:48:40.341Z,4.78
2023-01-06T18:53:43.427Z,5.85
2023-01-06T18:58:47.673Z,4.80
2023-01-06T19:04:06.474Z,4.72
2023-01-06T19:09:23.992Z,6.47
2023-01-06T19:14:24.212Z,6.07
2023-01-06T19:19:41.741Z,7.15
2023-01-06T19:24:45.601Z,5.95
2023-01-06T19:29:45.813Z,6.82
2023-01-06T19:34:45.491Z,12.93
2023-01-06T19:39:48.846Z,17.33
2023-01-06T19:49:58.861Z,5.82
2023-01-06T19:55:12.516Z,5.28
2023-01-06T20:00:30.259Z,6.43
2023-01-06T20:05:29.977Z,7.25
2023-01-06T20:10:29.899Z,12.98
2023-01-06T20:15:33.319Z,11.05
2023-01-06T20:25:37.145Z,13.43
2023-01-06T20:30:38.411Z,9.50
2023-01-06T20:35:37.189Z,24.73
2023-01-06T20:40:36.038Z,20.98
2023-01-06T20:45:35.600Z,9.05
2023-01-06T20:50:35.966Z,8.82
2023-01-06T20:55:35.016Z,10.65
2023-01-06T21:00:33.798Z,12.38
2023-01-06T21:05:32.902Z,8.52
2023-01-06T21:10:33.069Z,9.75
2023-01-06T21:15:31.886Z,10.90
2023-01-06T21:20:31.146Z,11.02
2023-01-06T21:25:30.397Z,20.45
2023-01-06T21:30:32.156Z,9.30
2023-01-06T21:35:30.973Z,13.50
2023-01-06T21:40:29.702Z,19.02
2023-01-06T21:45:29.015Z,24.20
2023-01-06T21:50:29.812Z,10.15
2023-01-06T21:55:28.755Z,15.25
2023-01-06T22:00:27.473Z,16.38
2023-01-06T22:05:26.315Z,14.25
2023-01-06T22:10:27.757Z,13.02
2023-01-06T22:15:29.239Z,14.70
2023-01-06T22:20:29.925Z,15.35
2023-01-06T22:25:30.424Z,14.00
2023-01-06T22:30:30.671Z,11.85
2023-01-06T22:35:29.830Z,12.15
2023-01-06T22:40:33.334Z,12.32
2023-01-06T22:50:30.751Z,8.75
2023-01-06T22:55:31.009Z,12.88
2023-01-06T23:00:29.851Z,75.85
2023-01-06T23:05:29.086Z,36.47
2023-01-06T23:10:28.064Z,38.28
2023-01-06T23:15:28.672Z,33.85
2023-01-06T23:20:27.441Z,20.05
2023-01-06T23:25:26.299Z,9.73
2023-01-06T23:30:25.213Z,17.02
2023-01-06T23:35:25.607Z,10.98
2023-01-06T23:40:24.441Z,10.50
2023-01-06T23:45:23.302Z,11.35
2023-01-06T23:50:22.020Z,9.10
2023-01-06T23:55:22.292Z,10.30
